createdAt,value
2023-02-09T00:02:00.942Z,101383.42
2023-02-09T00:05:08.333Z,101383.77
2023-02-09T00:08:14.517Z,101381.67
2023-02-09T00:11:20.127Z,101382.20
2023-02-09T00:14:26.666Z,101382.19
2023-02-09T00:17:33.436Z,101374.27
2023-02-09T00:20:39.690Z,101371.81
2023-02-09T00:23:46.200Z,101368.13
2023-02-09T00:26:52.633Z,101367.42
2023-02-09T00:29:58.945Z,101371.11
2023-02-09T00:33:05.274Z,101372.16
2023-02-09T00:36:14.511Z,101363.71
2023-02-09T00:39:20.716Z,101355.09
2023-02-09T00:42:26.926Z,101353.87
2023-02-09T00:45:33.572Z,101347.55
2023-02-09T00:48:39.917Z,101345.27
2023-02-09T00:51:46.632Z,101342.63
2023-02-09T00:54:52.973Z,101341.55
2023-02-09T00:57:59.149Z,101339.96
2023-02-09T01:01:05.480Z,101335.74
2023-02-09T01:04:11.712Z,101332.20
2023-02-09T01:07:17.945Z,101328.33
2023-02-09T01:10:24.554Z,101318.33
2023-02-09T01:13:31.150Z,101312.03
2023-02-09T01:16:37.406Z,101304.85
2023-02-09T01:19:43.627Z,101297.82
2023-02-09T01:22:50.052Z,101292.38
2023-02-09T01:26:04.647Z,101286.04
2023-02-09T01:29:13.040Z,101279.03
2023-02-09T01:32:19.176Z,101273.59
2023-02-09T01:35:23.719Z,101268.45
2023-02-09T01:38:30.591Z,101264.73
2023-02-09T01:41:37.043Z,101262.79
2023-02-09T01:45:17.911Z,101256.62
2023-02-09T01:48:27.424Z,101253.98
2023-02-09T01:51:37.906Z,101248.90
2023-02-09T01:54:47.715Z,101246.62
2023-02-09T01:57:56.744Z,101246.77
2023-02-09T02:01:03.205Z,101249.20
2023-02-09T02:04:09.839Z,101246.94
2023-02-09T02:07:21.843Z,101246.79
2023-02-09T02:10:28.317Z,101250.29
2023-02-09T02:13:34.562Z,101250.30
2023-02-09T02:16:55.177Z,101248.88
2023-02-09T02:20:33.298Z,101247.83
2023-02-09T02:23:48.692Z,101250.64
2023-02-09T02:26:59.679Z,101252.06
2023-02-09T02:30:35.270Z,101250.13
2023-02-09T02:33:50.974Z,101255.89
2023-02-09T02:37:05.253Z,101260.09
2023-02-09T02:40:21.841Z,101257.95
2023-02-09T02:43:41.705Z,101258.11
2023-02-09T02:46:52.080Z,101257.79
2023-02-09T02:50:04.953Z,101255.34
2023-02-09T02:53:14.936Z,101257.25
2023-02-09T02:56:25.823Z,101256.40
2023-02-09T02:59:35.207Z,101256.40
2023-02-09T03:02:44.831Z,101251.99
2023-02-09T03:05:51.917Z,101249.36
2023-02-09T03:08:59.569Z,101244.83
2023-02-09T03:12:14.157Z,101245.35
2023-02-09T03:15:31.710Z,101247.80
2023-02-09T03:18:45.355Z,101243.94
2023-02-09T03:21:57.114Z,101238.52
2023-02-09T03:25:07.693Z,101236.92
2023-02-09T03:28:19.569Z,101228.84
2023-02-09T03:31:26.710Z,101232.15
2023-02-09T03:34:32.940Z,101233.71
2023-02-09T03:37:39.644Z,101225.11
2023-02-09T03:40:46.559Z,101226.66
2023-02-09T03:44:10.607Z,101224.89
2023-02-09T03:47:16.771Z,101221.89
2023-02-09T03:50:23.072Z,101223.82
2023-02-09T03:53:29.406Z,101224.82
2023-02-09T03:56:37.647Z,101224.09
2023-02-09T03:59:43.942Z,101221.64
2023-02-09T04:02:50.191Z,101218.14
2023-02-09T04:05:56.690Z,101216.93
2023-02-09T04:09:03.994Z,101212.53
2023-02-09T04:12:10.570Z,101207.25
2023-02-09T04:15:16.890Z,101203.37
2023-02-09T04:18:23.541Z,101201.96
2023-02-09T04:21:29.810Z,101201.62
2023-02-09T04:24:36.281Z,101202.30
2023-02-09T04:27:42.468Z,101202.48
2023-02-09T04:30:52.414Z,101204.23
2023-02-09T04:33:58.660Z,101206.33
2023-02-09T04:37:04.928Z,101202.43
2023-02-09T04:40:12.900Z,101197.69
2023-02-09T04:43:19.992Z,101197.38
2023-02-09T04:46:26.272Z,101192.81
2023-02-09T04:49:32.629Z,101188.27
2023-02-09T04:52:38.805Z,101190.02
2023-02-09T04:55:46.716Z,101189.67
2023-02-09T04:59:10.448Z,101195.80
2023-02-09T05:02:16.604Z,101194.08
2023-02-09T05:05:22.989Z,101191.45
2023-02-09T05:08:30.106Z,101194.92
2023-02-09T05:11:36.321Z,101191.76
2023-02-09T05:14:42.590Z,101184.56
2023-02-09T05:17:48.926Z,101185.61
2023-02-09T05:20:55.473Z,101189.29
2023-02-09T05:24:01.758Z,101188.92
2023-02-09T05:27:08.010Z,101186.59
2023-02-09T05:30:15.573Z,101184.83
2023-02-09T05:33:22.006Z,101185.36
2023-02-09T05:36:28.334Z,101186.62
2023-02-09T05:39:34.710Z,101181.70
2023-02-09T05:42:41.186Z,101178.71
2023-02-09T05:45:48.439Z,101176.80
2023-02-09T05:48:54.726Z,101176.48
2023-02-09T05:52:01.025Z,101176.30
2023-02-09T05:55:07.988Z,101173.68
2023-02-09T05:58:14.618Z,101170.34
2023-02-09T06:01:20.943Z,101169.27
2023-02-09T06:04:27.853Z,101172.58
2023-02-09T06:07:34.033Z,101168.37
2023-02-09T06:10:40.075Z,101163.23
2023-02-09T06:13:44.541Z,101168.13
2023-02-09T06:16:50.774Z,101171.29
2023-02-09T06:19:56.981Z,101173.40
2023-02-09T06:23:03.273Z,101176.39
2023-02-09T06:26:11.989Z,101170.99
2023-02-09T06:29:18.203Z,101169.75
2023-02-09T06:32:24.376Z,101170.98
2023-02-09T06:35:30.638Z,101169.17
2023-02-09T06:38:38.129Z,101175.98
2023-02-09T06:41:44.331Z,101177.45
2023-02-09T06:44:50.552Z,101180.98
2023-02-09T06:47:56.754Z,101182.94
2023-02-09T06:51:03.110Z,101185.25
2023-02-09T06:54:09.819Z,101187.02
2023-02-09T06:57:16.078Z,101181.91
2023-02-09T07:00:23.891Z,101181.76
2023-02-09T07:03:30.870Z,101180.24
2023-02-09T07:06:37.144Z,101178.88
2023-02-09T07:09:43.366Z,101176.64
2023-02-09T07:12:49.708Z,101175.30
2023-02-09T07:16:00.936Z,101175.16
2023-02-09T07:19:07.216Z,101173.42
2023-02-09T07:22:13.543Z,101174.30
2023-02-09T07:25:19.957Z,101170.81
2023-02-09T07:28:26.432Z,101175.57
2023-02-09T07:31:32.701Z,101175.59
2023-02-09T07:34:38.996Z,101174.73
2023-02-09T07:37:45.441Z,101169.98
2023-02-09T07:40:51.921Z,101166.47
2023-02-09T07:43:58.457Z,101164.04
2023-02-09T07:47:04.828Z,101162.11
2023-02-09T07:50:12.014Z,101165.63
2023-02-09T07:53:18.502Z,101166.16
2023-02-09T07:56:25.050Z,101158.80
2023-02-09T07:59:31.294Z,101159.29
2023-02-09T08:02:38.987Z,101159.60
2023-02-09T08:05:52.641Z,101160.47
2023-02-09T08:09:01.077Z,101156.05
2023-02-09T08:12:09.710Z,101154.08
2023-02-09T08:15:18.030Z,101155.09
2023-02-09T08:18:26.440Z,101152.21
2023-02-09T08:21:35.527Z,101150.38
2023-02-09T08:24:42.400Z,101149.08
2023-02-09T08:27:49.494Z,101144.75
2023-02-09T08:30:55.836Z,101140.42
2023-02-09T08:34:02.087Z,101142.63
2023-02-09T08:37:08.207Z,101140.41
2023-02-09T08:40:14.964Z,101137.31
2023-02-09T08:43:21.383Z,101130.52
2023-02-09T08:46:27.930Z,101126.33
2023-02-09T08:49:34.305Z,101127.60
2023-02-09T08:52:38.858Z,101129.95
2023-02-09T08:55:45.317Z,101129.62
2023-02-09T08:58:51.959Z,101134.20
2023-02-09T09:01:58.213Z,101132.45
2023-02-09T09:05:02.670Z,101133.14
2023-02-09T09:08:09.688Z,101136.13
2023-02-09T09:11:16.066Z,101138.05
2023-02-09T09:14:22.292Z,101132.91
2023-02-09T09:17:27.137Z,101131.26
2023-02-09T09:20:33.216Z,101131.90
2023-02-09T09:23:39.674Z,101129.52
2023-02-09T09:26:46.524Z,101125.30
2023-02-09T09:29:52.843Z,101126.70
2023-02-09T09:32:59.068Z,101124.03
2023-02-09T09:36:03.940Z,101116.44
2023-02-09T09:39:10.133Z,101116.45
2023-02-09T09:42:22.217Z,101118.20
2023-02-09T09:45:31.699Z,101118.20
2023-02-09T09:48:44.625Z,101118.67
2023-02-09T09:51:54.844Z,101118.95
2023-02-09T09:55:02.540Z,101118.86
2023-02-09T09:58:17.173Z,101120.51
2023-02-09T10:01:23.508Z,101116.11
2023-02-09T10:04:31.558Z,101106.34
2023-02-09T10:07:39.129Z,101104.44
2023-02-09T10:10:50.973Z,101099.30
2023-02-09T10:13:58.640Z,101093.64
2023-02-09T10:17:05.274Z,101089.63
2023-02-09T10:20:13.437Z,101086.40
2023-02-09T10:23:23.921Z,101084.30
2023-02-09T10:26:32.326Z,101080.40
2023-02-09T10:29:38.868Z,101080.21
2023-02-09T10:32:46.471Z,101075.75
2023-02-09T10:35:55.077Z,101068.11
2023-02-09T10:39:19.904Z,101063.56
2023-02-09T10:42:30.346Z,101054.31
2023-02-09T10:45:42.024Z,101048.05
2023-02-09T10:48:49.001Z,101040.20
2023-02-09T10:52:07.177Z,101035.87
2023-02-09T10:55:21.312Z,101029.38
2023-02-09T10:58:31.392Z,101024.97
2023-02-09T11:01:43.448Z,101015.39
2023-02-09T11:04:50.083Z,101016.30
2023-02-09T11:08:00.368Z,101015.77
2023-02-09T11:11:10.452Z,101010.24
2023-02-09T11:14:18.545Z,101007.23
2023-02-09T11:17:36.531Z,101003.50
2023-02-09T11:20:46.330Z,100997.30
2023-02-09T11:24:03.234Z,100992.27
2023-02-09T11:27:23.609Z,100984.43
2023-02-09T11:30:45.909Z,100979.55
2023-02-09T11:34:02.017Z,100968.27
2023-02-09T11:37:21.356Z,100962.82
2023-02-09T11:40:33.297Z,100956.83
2023-02-09T11:43:42.495Z,100951.07
2023-02-09T11:46:50.683Z,100950.55
2023-02-09T11:49:59.322Z,100947.14
2023-02-09T11:53:13.023Z,100944.29
2023-02-09T11:56:21.209Z,100940.16
2023-02-09T11:59:34.156Z,100937.88
2023-02-09T12:02:52.188Z,100931.89
2023-02-09T12:05:58.647Z,100926.77
2023-02-09T12:09:09.864Z,100924.80
2023-02-09T12:12:27.163Z,100924.84
2023-02-09T12:15:43.001Z,100922.92
2023-02-09T12:18:49.690Z,100922.46
2023-02-09T12:21:55.976Z,100916.02
2023-02-09T12:25:19.754Z,100910.39
2023-02-09T12:28:46.991Z,100901.76
2023-02-09T12:32:35.978Z,100892.44
2023-02-09T12:35:43.576Z,100886.48
2023-02-09T12:39:05.098Z,100879.92
2023-02-09T12:42:31.328Z,100869.61
2023-02-09T12:45:39.778Z,100865.23
2023-02-09T12:49:04.522Z,100859.27
2023-02-09T12:52:20.349Z,100856.55
2023-02-09T12:55:27.375Z,100857.13
2023-02-09T12:59:10.482Z,100859.42
2023-02-09T13:02:28.178Z,100858.17
2023-02-09T13:05:38.966Z,100855.27
2023-02-09T13:08:53.555Z,100853.95
2023-02-09T13:12:07.638Z,100859.30
2023-02-09T13:15:19.331Z,100857.64
2023-02-09T13:18:35.160Z,100856.11
2023-02-09T13:21:48.538Z,100850.96
2023-02-09T13:24:59.826Z,100846.41
2023-02-09T13:28:16.395Z,100845.63
2023-02-09T13:31:39.774Z,100845.74
2023-02-09T13:34:55.458Z,100840.69
2023-02-09T13:38:08.460Z,100838.30
2023-02-09T13:41:28.492Z,100836.91
2023-02-09T13:44:36.957Z,100833.54
2023-02-09T13:47:49.395Z,100832.95
2023-02-09T13:50:57.433Z,100826.16
2023-02-09T13:54:05.101Z,100824.07
2023-02-09T13:57:23.779Z,100826.62
2023-02-09T14:00:37.486Z,100827.63
2023-02-09T14:03:57.805Z,100823.09
2023-02-09T14:07:08.499Z,100825.81
2023-02-09T14:10:18.209Z,100819.95
2023-02-09T14:13:28.836Z,100820.27
2023-02-09T14:16:44.724Z,100819.80
2023-02-09T14:20:00.390Z,100822.20
2023-02-09T14:23:17.517Z,100824.42
2023-02-09T14:26:27.714Z,100826.49
2023-02-09T14:29:36.141Z,100825.38
2023-02-09T14:32:45.569Z,100819.27
2023-02-09T14:35:59.348Z,100821.62
2023-02-09T14:39:14.036Z,100819.27
2023-02-09T14:42:20.793Z,100819.84
2023-02-09T14:45:39.420Z,100819.76
2023-02-09T14:48:45.853Z,100816.60
2023-02-09T14:51:51.209Z,100810.95
2023-02-09T14:55:00.026Z,100807.25
2023-02-09T14:58:13.944Z,100803.05
2023-02-09T15:01:20.272Z,100799.44
2023-02-09T15:04:24.817Z,100798.78
2023-02-09T15:07:37.588Z,100798.20
2023-02-09T15:10:48.526Z,100799.35
2023-02-09T15:13:58.497Z,100790.99
2023-02-09T15:17:11.106Z,100781.44
2023-02-09T15:20:21.447Z,100778.06
2023-02-09T15:23:27.934Z,100777.40
2023-02-09T15:26:37.272Z,100774.61
2023-02-09T15:29:43.418Z,100771.83
2023-02-09T15:32:49.961Z,100770.57
2023-02-09T15:35:59.551Z,100770.04
2023-02-09T15:39:08.255Z,100770.23
2023-02-09T15:42:35.502Z,100767.64
2023-02-09T15:46:10.552Z,100767.89
2023-02-09T15:49:16.822Z,100768.59
2023-02-09T15:52:21.674Z,100769.36
2023-02-09T15:55:29.096Z,100766.64
2023-02-09T15:58:37.340Z,100763.23
2023-02-09T16:01:43.768Z,100766.00
2023-02-09T16:04:50.232Z,100765.81
2023-02-09T16:07:55.123Z,100768.17
2023-02-09T16:11:02.158Z,100766.91
2023-02-09T16:14:17.772Z,100767.20
2023-02-09T16:17:24.108Z,100769.19
2023-02-09T16:20:29.115Z,100773.45
2023-02-09T16:23:37.428Z,100776.71
2023-02-09T16:26:43.633Z,100774.07
2023-02-09T16:29:49.910Z,100771.31
2023-02-09T16:32:57.080Z,100770.52
2023-02-09T16:36:05.289Z,100770.20
2023-02-09T16:39:18.926Z,100772.45
2023-02-09T16:42:26.535Z,100770.07
2023-02-09T16:45:38.809Z,100770.09
2023-02-09T16:48:47.917Z,100770.63
2023-02-09T16:51:56.314Z,100766.86
2023-02-09T16:55:07.717Z,100764.44
2023-02-09T16:58:16.706Z,100767.41
2023-02-09T17:01:24.216Z,100770.95
2023-02-09T17:04:30.678Z,100772.20
2023-02-09T17:07:48.814Z,100774.52
2023-02-09T17:11:00.554Z,100772.46
2023-02-09T17:14:06.876Z,100770.23
2023-02-09T17:17:18.988Z,100769.27
2023-02-09T17:20:30.440Z,100763.61
2023-02-09T17:23:37.043Z,100766.55
2023-02-09T17:26:43.557Z,100768.28
2023-02-09T17:29:49.874Z,100768.91
2023-02-09T17:32:59.879Z,100769.40
2023-02-09T17:39:33.106Z,100763.49
2023-02-09T17:42:38.383Z,100766.84
2023-02-09T17:45:49.094Z,100763.25
2023-02-09T17:48:55.587Z,100763.97
2023-02-09T17:52:01.846Z,100763.52
2023-02-09T17:55:06.789Z,100760.26
2023-02-09T17:58:13.577Z,100760.10
2023-02-09T18:01:27.441Z,100758.88
2023-02-09T18:04:33.891Z,100757.69
2023-02-09T18:07:40.262Z,100753.42
2023-02-09T18:10:44.769Z,100750.54
2023-02-09T18:13:51.100Z,100752.08
2023-02-09T18:16:56.283Z,100754.86
2023-02-09T18:20:02.584Z,100753.58
2023-02-09T18:23:07.357Z,100747.10
2023-02-09T18:26:13.706Z,100743.95
2023-02-09T18:29:18.261Z,100737.26
2023-02-09T18:32:24.669Z,100739.33
2023-02-09T18:35:34.346Z,100741.64
2023-02-09T18:38:41.064Z,100742.40
2023-02-09T18:41:54.429Z,100743.42
2023-02-09T18:45:01.240Z,100739.57
2023-02-09T18:48:06.027Z,100737.54
2023-02-09T18:51:12.635Z,100742.52
2023-02-09T18:54:19.048Z,100745.78
2023-02-09T18:57:25.273Z,100743.64
2023-02-09T19:00:32.697Z,100738.32
2023-02-09T19:03:38.945Z,100741.39
2023-02-09T19:06:43.609Z,100742.85
2023-02-09T19:09:49.897Z,100739.30
2023-02-09T19:12:55.527Z,100734.38
2023-02-09T19:16:01.957Z,100729.89
2023-02-09T19:19:09.617Z,100731.17
2023-02-09T19:22:19.816Z,100729.03
2023-02-09T19:25:29.018Z,100730.38
2023-02-09T19:28:36.265Z,100727.36
2023-02-09T19:31:42.863Z,100724.91
2023-02-09T19:34:50.000Z,100723.70
2023-02-09T19:37:57.651Z,100720.95
2023-02-09T19:41:12.055Z,100720.54
2023-02-09T19:44:18.534Z,100714.77
2023-02-09T19:47:27.488Z,100709.09
2023-02-09T19:50:33.910Z,100705.38
2023-02-09T19:53:40.169Z,100701.44
2023-02-09T19:56:45.326Z,100692.25
2023-02-09T19:59:51.664Z,100691.52
2023-02-09T20:02:56.284Z,100691.73
2023-02-09T20:06:05.750Z,100693.38
2023-02-09T20:09:12.470Z,100688.50
2023-02-09T20:12:19.279Z,100686.27
2023-02-09T20:15:25.727Z,100681.56
2023-02-09T20:18:32.171Z,100680.11
2023-02-09T20:21:36.992Z,100676.81
2023-02-09T20:24:44.377Z,100667.06
2023-02-09T20:27:51.825Z,100663.14
2023-02-09T20:30:58.176Z,100661.23
2023-02-09T20:34:05.165Z,100658.99
2023-02-09T20:37:12.167Z,100654.80
2023-02-09T20:40:18.590Z,100656.66
2023-02-09T20:43:42.602Z,100653.06
2023-02-09T20:46:58.087Z,100648.34
2023-02-09T20:50:05.166Z,100646.48
2023-02-09T20:53:11.542Z,100642.90
2023-02-09T20:56:17.758Z,100638.11
2023-02-09T20:59:25.504Z,100630.42
2023-02-09T21:02:31.811Z,100625.33
2023-02-09T21:05:38.655Z,100618.48
2023-02-09T21:08:44.911Z,100612.96
2023-02-09T21:11:49.408Z,100612.69
2023-02-09T21:14:56.739Z,100613.13
2023-02-09T21:18:03.116Z,100612.88
2023-02-09T21:21:08.093Z,100613.46
2023-02-09T21:24:14.434Z,100615.75
2023-02-09T21:27:19.394Z,100613.17
2023-02-09T21:30:26.068Z,100607.27
2023-02-09T21:33:32.283Z,100608.40
2023-02-09T21:36:38.103Z,100611.21
2023-02-09T21:39:42.768Z,100610.42
2023-02-09T21:42:49.994Z,100612.59
2023-02-09T21:45:56.292Z,100618.08
2023-02-09T21:49:02.934Z,100617.92
2023-02-09T21:52:09.670Z,100615.41
2023-02-09T21:55:17.099Z,100614.96
2023-02-09T21:58:23.355Z,100610.86
2023-02-09T22:01:27.906Z,100609.02
2023-02-09T22:04:34.355Z,100613.95
2023-02-09T22:07:40.776Z,100618.05
2023-02-09T22:10:48.901Z,100619.42
2023-02-09T22:13:56.357Z,100620.79
2023-02-09T22:17:02.920Z,100627.74
2023-02-09T22:20:11.107Z,100628.91
2023-02-09T22:23:18.669Z,100629.04
2023-02-09T22:26:24.861Z,100625.45
2023-02-09T22:29:33.374Z,100625.23
2023-02-09T22:32:39.854Z,100625.40
2023-02-09T22:35:46.409Z,100626.16
2023-02-09T22:38:52.825Z,100628.94
2023-02-09T22:41:59.331Z,100633.56
2023-02-09T22:45:06.145Z,100636.29
2023-02-09T22:48:13.614Z,100634.03
2023-02-09T22:51:20.809Z,100626.41
2023-02-09T22:54:27.038Z,100625.39
2023-02-09T22:57:31.630Z,100623.30
2023-02-09T23:00:37.821Z,100623.36
2023-02-09T23:03:44.169Z,100617.63
2023-02-09T23:06:50.466Z,100614.92
2023-02-09T23:09:55.367Z,100613.50
2023-02-09T23:13:01.595Z,100609.17
2023-02-09T23:16:16.012Z,100602.05
2023-02-09T23:19:22.930Z,100605.67
2023-02-09T23:22:29.240Z,100614.65
2023-02-09T23:25:33.839Z,100616.92
2023-02-09T23:28:40.205Z,100624.59
2023-02-09T23:31:45.160Z,100625.06
2023-02-09T23:34:51.384Z,100628.48
2023-02-09T23:37:57.840Z,100630.53
2023-02-09T23:41:08.957Z,100623.64
2023-02-09T23:44:15.297Z,100618.86
2023-02-09T23:47:21.541Z,100614.84
2023-02-09T23:50:27.720Z,100616.14
2023-02-09T23:53:35.262Z,100615.25
2023-02-09T23:56:42.067Z,100614.14
2023-02-09T23:59:48.500Z,100619.58
